createdAt,value
2022-12-17T04:02:29.541Z,12.23
2022-12-17T04:05:19.907Z,11.77
2022-12-17T04:08:06.275Z,11.87
2022-12-17T04:10:52.037Z,11.67
2022-12-17T04:13:41.092Z,11.27
2022-12-17T04:16:27.454Z,10.97
2022-12-17T04:19:14.257Z,10.73
2022-12-17T04:22:02.018Z,10.17
2022-12-17T04:24:47.114Z,10.20
2022-12-17T04:27:32.441Z,12.00
2022-12-17T04:30:17.950Z,10.97
2022-12-17T04:33:03.557Z,11.30
2022-12-17T04:35:50.277Z,9.93
2022-12-17T04:38:34.981Z,10.23
2022-12-17T04:41:20.621Z,12.43
2022-12-17T04:44:06.174Z,15.50
2022-12-17T04:46:51.554Z,20.33
2022-12-17T04:49:37.148Z,28.53
2022-12-17T04:52:24.013Z,26.60
2022-12-17T04:55:09.739Z,14.13
2022-12-17T04:57:55.252Z,12.87
2022-12-17T05:00:40.822Z,18.10
2022-12-17T05:03:30.584Z,17.50
2022-12-17T05:06:16.495Z,16.57
2022-12-17T05:09:03.332Z,17.77
2022-12-17T05:11:48.936Z,13.57
2022-12-17T05:14:34.345Z,18.03
2022-12-17T05:17:20.022Z,15.63
2022-12-17T05:20:05.472Z,16.70
2022-12-17T05:22:51.047Z,12.13
2022-12-17T05:25:37.967Z,10.67
2022-12-17T05:28:23.465Z,12.57
2022-12-17T05:31:10.995Z,11.60
2022-12-17T05:33:56.865Z,12.00
2022-12-17T05:36:42.443Z,11.03
2022-12-17T05:39:28.046Z,11.67
2022-12-17T05:42:14.670Z,11.30
2022-12-17T05:45:00.076Z,10.07
2022-12-17T05:47:45.764Z,9.83
2022-12-17T05:50:31.294Z,10.67
2022-12-17T05:53:20.586Z,10.80
2022-12-17T05:56:08.109Z,11.33
2022-12-17T05:58:55.299Z,11.63
2022-12-17T06:01:40.852Z,12.03
2022-12-17T06:04:36.146Z,11.60
2022-12-17T06:07:21.789Z,11.23
2022-12-17T06:10:07.445Z,11.77
2022-12-17T06:12:53.030Z,13.40
2022-12-17T06:15:40.039Z,12.90
2022-12-17T06:18:25.582Z,11.83
2022-12-17T06:21:11.381Z,12.23
2022-12-17T06:23:57.085Z,12.40
2022-12-17T06:26:42.456Z,13.93
2022-12-17T06:29:39.476Z,11.17
2022-12-17T06:32:26.030Z,10.77
2022-12-17T06:35:11.521Z,11.30
2022-12-17T06:38:05.525Z,11.60
2022-12-17T06:40:51.092Z,12.50
2022-12-17T06:43:45.031Z,11.53
2022-12-17T06:46:32.769Z,15.07
2022-12-17T06:49:19.337Z,13.53
2022-12-17T06:52:04.589Z,15.07
2022-12-17T06:54:50.026Z,11.50
2022-12-17T06:57:40.831Z,10.07
2022-12-17T07:00:29.768Z,10.40
2022-12-17T07:03:15.792Z,9.63
2022-12-17T07:06:02.438Z,9.77
2022-12-17T07:08:48.034Z,9.97
2022-12-17T07:11:33.674Z,9.53
2022-12-17T07:14:19.296Z,8.80
2022-12-17T07:17:04.804Z,9.27
2022-12-17T07:19:50.269Z,8.70
2022-12-17T07:22:37.224Z,9.00
2022-12-17T07:25:25.473Z,8.37
2022-12-17T07:28:14.445Z,8.77
2022-12-17T07:31:00.021Z,8.37
2022-12-17T07:33:45.730Z,9.20
2022-12-17T07:36:39.702Z,8.87
2022-12-17T07:39:26.449Z,9.00
2022-12-17T07:42:12.022Z,11.70
2022-12-17T07:44:57.390Z,13.27
2022-12-17T07:47:42.822Z,10.77
2022-12-17T07:50:28.616Z,11.23
2022-12-17T07:53:23.596Z,11.80
2022-12-17T07:56:10.641Z,11.77
2022-12-17T07:58:56.197Z,14.07
2022-12-17T08:01:41.785Z,10.17
2022-12-17T08:04:27.103Z,13.73
2022-12-17T08:07:14.276Z,16.03
2022-12-17T08:09:59.666Z,11.07
2022-12-17T08:12:46.382Z,10.17
2022-12-17T08:15:31.964Z,10.57
2022-12-17T08:18:26.161Z,11.70
2022-12-17T08:21:12.694Z,9.97
2022-12-17T08:23:58.220Z,9.80
2022-12-17T08:26:47.806Z,9.57
2022-12-17T08:29:35.214Z,9.33
2022-12-17T08:32:32.273Z,9.90
2022-12-17T08:35:17.949Z,9.97
2022-12-17T08:38:03.566Z,10.43
2022-12-17T08:40:49.062Z,10.03
2022-12-17T08:43:34.838Z,12.57
2022-12-17T08:46:22.390Z,9.57
2022-12-17T08:49:07.839Z,10.07
2022-12-17T08:51:53.310Z,9.20
2022-12-17T08:54:38.759Z,9.90
2022-12-17T08:57:31.561Z,9.00
2022-12-17T09:00:17.805Z,8.40
2022-12-17T09:03:04.602Z,8.57
2022-12-17T09:05:49.079Z,9.73
2022-12-17T09:08:34.699Z,10.03
2022-12-17T09:11:20.102Z,12.07
2022-12-17T09:14:05.574Z,9.47
2022-12-17T09:16:51.185Z,9.30
2022-12-17T09:19:36.982Z,12.37
2022-12-17T09:22:22.504Z,11.20
2022-12-17T09:25:07.785Z,12.00
2022-12-17T09:27:53.288Z,10.77
2022-12-17T09:30:38.997Z,10.07
2022-12-17T09:33:24.746Z,10.47
2022-12-17T09:36:11.725Z,10.67
2022-12-17T09:38:57.317Z,11.83
2022-12-17T09:41:46.022Z,12.03
2022-12-17T09:44:40.298Z,10.47
2022-12-17T09:47:47.925Z,10.43
2022-12-17T09:50:46.414Z,10.77
2022-12-17T09:53:40.141Z,11.00
2022-12-17T09:56:29.183Z,10.47
2022-12-17T09:59:14.691Z,10.77
2022-12-17T10:02:00.412Z,10.53
2022-12-17T10:04:52.762Z,11.70
2022-12-17T10:07:40.858Z,12.68
2022-12-17T10:10:35.703Z,11.33
2022-12-17T10:13:21.387Z,13.07
2022-12-17T10:16:06.982Z,13.47
2022-12-17T10:18:52.529Z,13.60
2022-12-17T10:21:38.133Z,15.63
2022-12-17T10:24:39.224Z,11.97
2022-12-17T10:27:29.741Z,14.43
2022-12-17T10:30:15.190Z,12.53
2022-12-17T10:33:00.658Z,13.07
2022-12-17T10:35:54.325Z,12.57
2022-12-17T10:38:42.362Z,9.80
2022-12-17T10:41:41.394Z,9.50
2022-12-17T10:44:42.469Z,10.53
2022-12-17T10:47:31.741Z,12.10
2022-12-17T10:50:18.573Z,9.20
2022-12-17T10:53:10.909Z,9.23
2022-12-17T10:56:05.766Z,10.27
2022-12-17T10:58:51.300Z,10.73
2022-12-17T11:01:41.104Z,11.10
2022-12-17T11:04:43.605Z,10.37
2022-12-17T11:07:33.100Z,10.63
2022-12-17T11:10:21.220Z,10.40
2022-12-17T11:13:09.754Z,10.10
2022-12-17T11:15:59.201Z,9.50
2022-12-17T11:18:49.637Z,10.90
2022-12-17T11:21:41.809Z,10.27
2022-12-17T11:24:33.333Z,10.80
2022-12-17T11:27:24.014Z,10.23
2022-12-17T11:30:09.722Z,11.47
2022-12-17T11:33:04.634Z,10.50
2022-12-17T11:35:56.525Z,10.60
2022-12-17T11:38:53.260Z,10.60
2022-12-17T11:41:53.364Z,11.10
2022-12-17T11:44:50.984Z,11.07
2022-12-17T11:47:45.692Z,10.87
2022-12-17T11:50:39.103Z,10.07
2022-12-17T11:53:51.645Z,10.83
2022-12-17T11:56:41.555Z,11.50
2022-12-17T11:59:34.751Z,12.43
2022-12-17T12:02:28.399Z,12.00
2022-12-17T12:05:29.968Z,12.40
2022-12-17T12:08:23.332Z,10.90
2022-12-17T12:11:18.536Z,11.40
2022-12-17T12:14:09.563Z,11.57
2022-12-17T12:17:04.220Z,12.67
2022-12-17T12:19:56.655Z,13.57
2022-12-17T12:22:50.200Z,13.93
2022-12-17T12:25:51.724Z,12.57
2022-12-17T12:28:48.521Z,12.83
2022-12-17T12:31:43.798Z,12.23
2022-12-17T12:34:34.307Z,12.67
2022-12-17T12:37:21.577Z,12.67
2022-12-17T12:40:13.190Z,11.93
2022-12-17T12:43:04.962Z,12.43
2022-12-17T12:46:01.806Z,12.10
2022-12-17T12:48:57.199Z,13.27
2022-12-17T12:51:45.320Z,13.30
2022-12-17T12:54:43.624Z,13.97
2022-12-17T12:57:50.560Z,14.47
2022-12-17T13:00:56.380Z,13.40
2022-12-17T13:03:48.118Z,11.90
2022-12-17T13:06:31.734Z,13.70
2022-12-17T13:09:06.069Z,13.93
2022-12-17T13:11:38.908Z,14.13
2022-12-17T13:14:14.367Z,13.20
2022-12-17T13:16:54.591Z,13.70
2022-12-17T13:19:36.519Z,14.17
2022-12-17T13:22:29.824Z,13.50
2022-12-17T13:25:15.434Z,13.47
2022-12-17T13:27:43.785Z,13.97
2022-12-17T13:30:22.758Z,14.37
2022-12-17T13:33:02.108Z,14.20
2022-12-17T13:35:40.384Z,14.33
2022-12-17T13:38:17.053Z,14.37
2022-12-17T13:40:49.426Z,15.17
2022-12-17T13:43:20.701Z,15.10
2022-12-17T13:45:49.318Z,14.97
2022-12-17T13:48:23.767Z,15.47
2022-12-17T13:50:56.270Z,16.87
2022-12-17T13:53:24.202Z,17.23
2022-12-17T13:55:52.930Z,19.92
2022-12-17T13:58:25.990Z,19.23
2022-12-17T14:01:07.390Z,18.53
2022-12-17T14:04:04.237Z,19.17
2022-12-17T14:06:29.675Z,19.30
2022-12-17T14:08:59.010Z,27.10
2022-12-17T14:11:44.705Z,22.00
2022-12-17T14:14:20.981Z,20.13
2022-12-17T14:16:50.932Z,20.87
2022-12-17T14:19:20.540Z,20.57
2022-12-17T14:21:48.850Z,22.70
2022-12-17T14:24:19.840Z,23.40
2022-12-17T14:26:51.842Z,20.83
2022-12-17T14:29:23.807Z,20.57
2022-12-17T14:31:56.448Z,21.10
2022-12-17T14:34:26.012Z,21.90
2022-12-17T14:36:59.244Z,21.93
2022-12-17T14:39:28.689Z,22.27
2022-12-17T14:42:15.524Z,22.40
2022-12-17T14:44:52.133Z,22.70
2022-12-17T14:47:22.757Z,21.77
2022-12-17T14:49:59.147Z,21.63
2022-12-17T14:52:34.127Z,21.20
2022-12-17T14:55:02.419Z,20.47
2022-12-17T14:57:30.870Z,21.43
2022-12-17T14:59:58.762Z,22.20
2022-12-17T15:02:30.872Z,21.47
2022-12-17T15:05:03.469Z,21.07
2022-12-17T15:07:32.988Z,19.80
2022-12-17T15:10:00.883Z,20.30
2022-12-17T15:12:29.007Z,19.37
2022-12-17T15:14:56.829Z,19.90
2022-12-17T15:17:24.710Z,20.27
2022-12-17T15:19:56.241Z,20.27
2022-12-17T15:22:25.810Z,19.63
2022-12-17T15:24:53.649Z,28.23
2022-12-17T15:27:21.515Z,22.73
2022-12-17T15:29:49.531Z,21.17
2022-12-17T15:32:20.174Z,20.10
2022-12-17T15:34:48.443Z,20.30
2022-12-17T15:37:21.044Z,19.97
2022-12-17T15:39:52.899Z,20.37
2022-12-17T15:42:38.145Z,21.17
2022-12-17T15:45:07.039Z,20.17
2022-12-17T15:47:34.876Z,20.13
2022-12-17T15:50:03.412Z,20.90
2022-12-17T15:52:32.576Z,19.50
2022-12-17T15:55:01.710Z,22.97
2022-12-17T15:57:29.507Z,20.63
2022-12-17T15:59:57.309Z,20.10
2022-12-17T16:02:25.639Z,19.67
2022-12-17T16:04:53.664Z,19.67
2022-12-17T16:07:21.484Z,19.33
2022-12-17T16:09:49.344Z,19.80
2022-12-17T16:12:18.545Z,19.27
2022-12-17T16:14:48.534Z,20.13
2022-12-17T16:17:16.431Z,18.77
2022-12-17T16:19:44.290Z,20.33
2022-12-17T16:22:12.359Z,23.03
2022-12-17T16:24:40.885Z,20.23
2022-12-17T16:27:08.786Z,19.57
2022-12-17T16:29:37.972Z,21.13
2022-12-17T16:32:06.443Z,19.37
2022-12-17T16:34:34.326Z,20.13
2022-12-17T16:37:02.191Z,19.97
2022-12-17T16:39:30.062Z,20.03
2022-12-17T16:41:58.153Z,20.70
2022-12-17T16:44:26.085Z,20.20
2022-12-17T16:46:55.291Z,20.30
2022-12-17T16:49:24.575Z,21.10
2022-12-17T16:51:53.908Z,19.13
2022-12-17T16:54:24.145Z,20.03
2022-12-17T16:56:51.991Z,19.30
2022-12-17T16:59:20.212Z,19.73
2022-12-17T17:01:50.016Z,21.93
2022-12-17T17:04:21.241Z,18.97
2022-12-17T17:06:50.832Z,19.23
2022-12-17T17:09:19.460Z,19.43
2022-12-17T17:11:51.494Z,18.77
2022-12-17T17:14:20.191Z,20.57
2022-12-17T17:16:48.102Z,19.50
2022-12-17T17:19:16.125Z,19.57
2022-12-17T17:21:49.851Z,18.50
2022-12-17T17:24:21.737Z,18.03
2022-12-17T17:26:50.242Z,19.07
2022-12-17T17:29:18.512Z,18.23
2022-12-17T17:32:09.140Z,19.63
2022-12-17T17:34:34.490Z,19.73
2022-12-17T17:37:05.096Z,19.27
2022-12-17T17:39:34.124Z,19.17
2022-12-17T17:42:02.088Z,19.67
2022-12-17T17:44:29.948Z,19.67
2022-12-17T17:46:57.882Z,20.33
2022-12-17T17:49:25.963Z,20.50
2022-12-17T17:52:10.909Z,19.93
2022-12-17T17:54:41.120Z,18.67
2022-12-17T17:57:09.690Z,18.70
2022-12-17T17:59:39.235Z,19.07
2022-12-17T18:02:08.568Z,18.20
2022-12-17T18:04:36.585Z,19.57
2022-12-17T18:09:53.792Z,19.43
2022-12-17T18:12:40.161Z,20.17
2022-12-17T18:15:17.783Z,19.20
2022-12-17T18:17:47.371Z,19.07
2022-12-17T18:20:15.364Z,19.90
2022-12-17T18:22:43.401Z,20.33
2022-12-17T18:25:13.013Z,19.47
2022-12-17T18:27:40.922Z,20.47
2022-12-17T18:30:10.435Z,20.20
2022-12-17T18:32:38.292Z,19.53
2022-12-17T18:35:07.041Z,19.63
2022-12-17T18:37:35.053Z,20.30
2022-12-17T18:40:03.203Z,20.57
2022-12-17T18:42:50.057Z,19.90
2022-12-17T18:45:17.985Z,19.63
2022-12-17T18:47:46.904Z,19.87
2022-12-17T18:50:14.786Z,21.07
2022-12-17T18:52:42.658Z,20.00
2022-12-17T18:55:12.088Z,20.53
2022-12-17T18:57:41.801Z,20.80
2022-12-17T19:00:11.283Z,20.47
2022-12-17T19:02:39.323Z,19.17
2022-12-17T19:05:07.774Z,19.63
2022-12-17T19:07:35.641Z,20.27
2022-12-17T19:10:03.565Z,19.50
2022-12-17T19:12:31.408Z,19.60
2022-12-17T19:15:00.597Z,18.60
2022-12-17T19:17:28.525Z,18.30
2022-12-17T19:19:56.389Z,18.47
2022-12-17T19:22:24.606Z,20.30
2022-12-17T19:24:52.454Z,20.47
2022-12-17T19:27:20.292Z,19.50
2022-12-17T19:29:49.938Z,21.23
2022-12-17T19:32:19.423Z,20.43
2022-12-17T19:34:47.263Z,19.37
2022-12-17T19:37:15.084Z,19.23
2022-12-17T19:39:42.967Z,17.73
2022-12-17T19:42:24.437Z,17.40
2022-12-17T19:44:53.240Z,17.40
2022-12-17T19:47:22.987Z,16.60
2022-12-17T19:49:51.128Z,17.87
2022-12-17T19:52:19.000Z,18.20
2022-12-17T19:54:46.835Z,17.37
2022-12-17T19:57:14.640Z,17.60
2022-12-17T19:59:42.482Z,17.20
2022-12-17T20:02:11.081Z,17.27
2022-12-17T20:04:40.491Z,18.13
2022-12-17T20:07:08.338Z,17.70
2022-12-17T20:09:36.216Z,18.57
2022-12-17T20:12:04.366Z,17.70
2022-12-17T20:14:34.163Z,17.83
2022-12-17T20:17:02.686Z,18.20
2022-12-17T20:19:32.225Z,16.90
2022-12-17T20:22:04.242Z,17.73
2022-12-17T20:24:32.481Z,18.40
2022-12-17T20:27:01.261Z,17.90
2022-12-17T20:29:29.394Z,18.20
2022-12-17T20:31:57.394Z,19.53
2022-12-17T20:34:28.301Z,19.87
2022-12-17T20:36:56.226Z,20.47
2022-12-17T20:39:28.032Z,19.77
2022-12-17T20:41:57.244Z,18.43
2022-12-17T20:44:25.260Z,19.03
2022-12-17T20:46:53.214Z,19.30
2022-12-17T20:49:21.117Z,18.43
2022-12-17T20:51:49.039Z,19.43
2022-12-17T20:54:16.900Z,19.57
2022-12-17T20:56:46.123Z,18.43
2022-12-17T20:59:16.373Z,19.90
2022-12-17T21:01:44.430Z,19.50
2022-12-17T21:04:13.913Z,19.73
2022-12-17T21:06:43.574Z,19.30
2022-12-17T21:09:12.122Z,18.40
2022-12-17T21:11:41.105Z,19.50
2022-12-17T21:14:13.758Z,18.37
2022-12-17T21:16:42.153Z,17.33
2022-12-17T21:19:13.415Z,17.97
2022-12-17T21:21:41.341Z,17.43
2022-12-17T21:24:10.235Z,17.63
2022-12-17T21:26:40.069Z,17.87
2022-12-17T21:29:09.457Z,18.10
2022-12-17T21:31:41.508Z,17.87
2022-12-17T21:34:12.468Z,19.27
2022-12-17T21:36:41.063Z,17.47
2022-12-17T21:39:10.564Z,18.50
2022-12-17T21:41:44.054Z,17.30
2022-12-17T21:44:15.308Z,18.70
2022-12-17T21:46:47.378Z,17.27
2022-12-17T21:49:18.082Z,16.90
2022-12-17T21:51:46.341Z,21.03
2022-12-17T21:54:19.207Z,18.57
2022-12-17T21:56:48.114Z,17.50
2022-12-17T21:59:15.996Z,18.23
2022-12-17T22:01:45.398Z,17.77
2022-12-17T22:04:13.389Z,17.37
2022-12-17T22:06:52.968Z,17.37
2022-12-17T22:09:41.830Z,18.33
2022-12-17T22:12:35.572Z,17.17
2022-12-17T22:15:03.711Z,19.10
2022-12-17T22:17:33.640Z,18.07
2022-12-17T22:20:01.505Z,16.77
2022-12-17T22:22:29.851Z,17.27
2022-12-17T22:24:59.228Z,17.93
2022-12-17T22:27:32.150Z,17.77
2022-12-17T22:30:17.601Z,17.53
2022-12-17T22:33:02.394Z,17.60
2022-12-17T22:36:45.494Z,17.70
2022-12-17T22:43:09.598Z,17.97
2022-12-17T22:44:45.810Z,17.83
2022-12-17T22:44:48.657Z,18.10
2022-12-17T22:47:07.164Z,18.73
2022-12-17T22:49:36.415Z,18.73
2022-12-17T22:52:04.370Z,19.23
2022-12-17T22:54:32.485Z,19.53
2022-12-17T22:57:35.903Z,18.57
2022-12-17T22:59:48.676Z,19.17
